createdAt,value
2023-04-19T00:00:28.815Z,8.22
2023-04-19T00:03:02.290Z,8.25
2023-04-19T00:05:48.840Z,8.26
2023-04-19T00:08:24.962Z,8.30
2023-04-19T00:11:11.844Z,8.32
2023-04-19T00:13:44.994Z,8.35
2023-04-19T00:16:31.871Z,8.34
2023-04-19T00:19:04.946Z,8.35
2023-04-19T00:21:51.888Z,8.35
2023-04-19T00:24:24.985Z,8.35
2023-04-19T00:27:11.857Z,8.38
2023-04-19T00:29:44.956Z,8.39
2023-04-19T00:32:31.932Z,8.39
2023-04-19T00:35:04.956Z,8.42
2023-04-19T00:37:51.843Z,8.42
2023-04-19T00:40:25.007Z,8.42
2023-04-19T00:43:11.890Z,8.42
2023-04-19T00:45:44.970Z,8.45
2023-04-19T00:48:24.871Z,8.45
2023-04-19T00:51:04.930Z,8.47
2023-04-19T00:53:37.937Z,8.49
2023-04-19T00:56:25.870Z,8.49
2023-04-19T00:59:00.983Z,8.50
2023-04-19T01:01:47.887Z,8.50
2023-04-19T01:04:23.147Z,8.51
2023-04-19T01:07:09.866Z,8.53
2023-04-19T01:09:47.960Z,8.52
2023-04-19T01:12:34.840Z,8.52
2023-04-19T01:15:08.965Z,8.51
2023-04-19T01:17:55.923Z,8.49
2023-04-19T01:20:35.866Z,8.48
2023-04-19T01:23:23.871Z,8.46
2023-04-19T01:25:56.968Z,8.47
2023-04-19T01:28:43.871Z,8.45
2023-04-19T01:31:17.060Z,8.44
2023-04-19T01:34:03.882Z,8.44
2023-04-19T01:36:43.867Z,8.43
2023-04-19T01:39:38.887Z,8.41
2023-04-19T01:42:25.889Z,8.41
2023-04-19T01:44:58.971Z,8.40
2023-04-19T01:47:45.920Z,8.40
2023-04-19T01:50:25.887Z,8.37
2023-04-19T01:53:19.879Z,8.39
2023-04-19T01:56:06.872Z,8.37
2023-04-19T01:58:39.984Z,8.37
2023-04-19T02:01:26.961Z,8.39
2023-04-19T02:04:06.971Z,8.38
2023-04-19T02:06:57.050Z,8.39
2023-04-19T02:09:29.984Z,8.39
2023-04-19T02:12:16.997Z,8.39
2023-04-19T02:14:49.984Z,8.38
2023-04-19T02:17:36.969Z,8.36
2023-04-19T02:20:11.098Z,8.35
2023-04-19T02:22:57.897Z,8.36
2023-04-19T02:25:31.252Z,8.34
2023-04-19T02:28:17.899Z,8.34
2023-04-19T02:30:51.015Z,8.35
2023-04-19T02:33:37.904Z,8.34
2023-04-19T02:36:17.897Z,8.34
2023-04-19T02:39:11.907Z,8.35
2023-04-19T02:41:58.905Z,8.35
2023-04-19T02:44:32.080Z,8.35
2023-04-19T02:47:18.919Z,8.34
2023-04-19T02:49:51.985Z,8.35
2023-04-19T02:52:38.911Z,8.34
2023-04-19T02:55:13.028Z,8.34
2023-04-19T02:57:59.924Z,8.34
2023-04-19T03:00:33.019Z,8.34
2023-04-19T03:03:20.056Z,8.34
2023-04-19T03:05:53.038Z,8.34
2023-04-19T03:08:39.902Z,8.35
2023-04-19T03:11:13.011Z,8.37
2023-04-19T03:13:59.911Z,8.35
2023-04-19T03:16:33.774Z,8.37
2023-04-19T03:19:20.910Z,8.35
2023-04-19T03:21:54.006Z,8.34
2023-04-19T03:24:40.916Z,8.34
2023-04-19T03:27:20.961Z,8.35
2023-04-19T03:30:07.951Z,8.34
2023-04-19T03:32:41.094Z,8.34
2023-04-19T03:35:28.904Z,8.34
2023-04-19T03:38:02.025Z,8.33
2023-04-19T03:40:48.902Z,8.33
2023-04-19T03:43:22.439Z,8.32
2023-04-19T03:46:08.937Z,8.32
2023-04-19T03:48:42.098Z,8.31
2023-04-19T03:51:28.952Z,8.31
2023-04-19T03:54:02.044Z,8.30
2023-04-19T03:56:48.960Z,8.31
2023-04-19T03:59:22.059Z,8.31
2023-04-19T04:02:09.016Z,8.29
2023-04-19T04:04:42.183Z,8.29
2023-04-19T04:07:29.922Z,8.29
2023-04-19T04:10:03.069Z,8.28
2023-04-19T04:12:49.902Z,8.27
2023-04-19T04:15:23.023Z,8.28
2023-04-19T04:18:24.910Z,8.28
2023-04-19T04:21:18.937Z,8.27
2023-04-19T04:24:08.935Z,8.27
2023-04-19T04:26:48.916Z,8.27
2023-04-19T04:29:35.967Z,8.27
2023-04-19T04:32:11.190Z,8.26
2023-04-19T04:34:57.951Z,8.25
2023-04-19T04:37:37.936Z,8.25
2023-04-19T04:40:31.970Z,8.22
2023-04-19T04:43:26.003Z,8.23
2023-04-19T04:46:20.050Z,8.23
2023-04-19T04:49:09.965Z,8.23
2023-04-19T04:51:43.050Z,8.22
2023-04-19T04:54:29.971Z,8.21
2023-04-19T04:57:04.048Z,8.22
2023-04-19T04:59:50.954Z,8.21
2023-04-19T05:02:25.778Z,8.21
2023-04-19T05:05:12.951Z,8.21
2023-04-19T05:07:52.969Z,8.21
2023-04-19T05:10:46.969Z,8.23
2023-04-19T05:13:33.972Z,8.20
2023-04-19T05:16:07.129Z,8.12
2023-04-19T05:18:53.977Z,8.11
2023-04-19T05:21:47.986Z,8.10
2023-04-19T05:24:34.965Z,8.09
2023-04-19T05:27:14.968Z,8.07
2023-04-19T05:30:02.010Z,8.05
2023-04-19T05:32:41.979Z,8.01
2023-04-19T05:35:36.005Z,8.00
2023-04-19T05:38:23.973Z,7.98
2023-04-19T05:40:57.094Z,7.97
2023-04-19T05:43:44.022Z,7.98
2023-04-19T05:46:24.000Z,8.01
2023-04-19T05:49:18.001Z,8.03
2023-04-19T05:52:04.994Z,8.06
2023-04-19T05:54:38.138Z,8.12
2023-04-19T05:57:24.965Z,8.16
2023-04-19T06:02:45.100Z,8.24
2023-04-19T06:05:18.179Z,8.28
2023-04-19T06:08:04.987Z,8.34
2023-04-19T06:10:52.608Z,8.39
2023-04-19T06:13:40.995Z,8.42
2023-04-19T06:16:15.207Z,8.47
2023-04-19T06:19:02.013Z,8.46
2023-04-19T06:21:55.980Z,8.48
2023-04-19T06:24:49.997Z,8.54
2023-04-19T06:27:39.021Z,8.56
2023-04-19T06:30:19.989Z,8.60
2023-04-19T06:33:06.997Z,8.64
2023-04-19T06:35:40.113Z,8.68
2023-04-19T06:38:27.064Z,8.71
2023-04-19T06:41:03.175Z,8.73
2023-04-19T06:43:51.191Z,8.75
2023-04-19T06:46:24.143Z,8.75
2023-04-19T06:49:11.011Z,8.71
2023-04-19T06:51:53.024Z,8.76
2023-04-19T06:54:47.025Z,8.81
2023-04-19T06:57:41.026Z,8.85
2023-04-19T07:00:29.078Z,8.86
2023-04-19T07:03:09.191Z,8.88
2023-04-19T07:06:05.013Z,8.93
2023-04-19T07:08:52.022Z,8.98
2023-04-19T07:11:25.363Z,8.99
2023-04-19T07:14:12.015Z,9.03
2023-04-19T07:16:46.270Z,9.03
2023-04-19T07:19:40.016Z,9.01
2023-04-19T07:22:34.003Z,8.97
2023-04-19T07:25:28.014Z,8.97
2023-04-19T07:28:15.019Z,8.97
2023-04-19T07:30:48.122Z,8.99
2023-04-19T07:33:35.118Z,9.07
2023-04-19T07:36:15.090Z,9.17
2023-04-19T07:39:02.030Z,9.27
2023-04-19T07:41:36.312Z,9.28
2023-04-19T07:44:23.031Z,9.29
2023-04-19T07:46:56.440Z,9.27
2023-04-19T07:49:44.045Z,9.24
2023-04-19T07:52:18.456Z,9.21
2023-04-19T07:55:05.026Z,9.17
2023-04-19T07:57:38.133Z,9.05
2023-04-19T08:00:28.036Z,9.00
2023-04-19T08:03:01.303Z,8.94
2023-04-19T08:05:48.204Z,8.91
2023-04-19T08:08:23.638Z,8.95
2023-04-19T08:11:11.086Z,8.93
2023-04-19T08:13:55.086Z,8.92
2023-04-19T08:19:27.176Z,8.82
2023-04-19T08:22:14.032Z,8.77
2023-04-19T08:24:47.175Z,8.66
2023-04-19T08:27:34.026Z,8.59
2023-04-19T08:30:08.028Z,8.54
2023-04-19T08:32:56.997Z,8.51
2023-04-19T08:35:31.292Z,8.48
2023-04-19T08:38:18.051Z,8.50
2023-04-19T08:41:06.046Z,8.52
2023-04-19T08:43:58.056Z,8.53
2023-04-19T08:46:31.202Z,8.54
2023-04-19T08:49:18.295Z,8.66
2023-04-19T08:51:52.250Z,8.81
2023-04-19T08:54:42.357Z,9.00
2023-04-19T08:57:16.292Z,9.19
2023-04-19T09:00:04.307Z,9.29
2023-04-19T09:02:58.146Z,9.34
2023-04-19T09:05:45.278Z,9.36
2023-04-19T09:08:33.377Z,9.50
2023-04-19T09:11:20.068Z,9.67
2023-04-19T09:14:00.079Z,9.73
2023-04-19T09:16:59.080Z,9.77
2023-04-19T09:20:03.054Z,9.70
2023-04-19T09:22:50.070Z,9.65
2023-04-19T09:25:49.236Z,9.68
2023-04-19T09:28:39.085Z,9.70
2023-04-19T09:31:35.748Z,9.72
2023-04-19T09:34:26.078Z,9.72
2023-04-19T09:37:09.071Z,9.60
2023-04-19T09:39:53.073Z,9.50
2023-04-19T09:45:45.127Z,9.25
2023-04-19T09:48:25.220Z,9.15
2023-04-19T09:51:10.568Z,9.07
2023-04-19T09:53:53.485Z,9.01
2023-04-19T09:56:33.103Z,8.95
2023-04-19T09:59:20.808Z,8.91
2023-04-19T10:02:07.217Z,8.83
2023-04-19T10:05:11.244Z,8.73
2023-04-19T10:07:48.241Z,8.69
2023-04-19T10:13:30.282Z,8.59
2023-04-19T10:16:20.206Z,8.56
2023-04-19T10:18:56.305Z,8.54
2023-04-19T10:21:44.095Z,8.60
2023-04-19T10:24:28.085Z,8.66
2023-04-19T10:27:18.180Z,8.65
2023-04-19T10:30:12.755Z,8.63
2023-04-19T10:33:10.163Z,8.64
2023-04-19T10:35:52.098Z,8.60
2023-04-19T10:38:44.107Z,8.54
2023-04-19T10:41:24.139Z,8.55
2023-04-19T10:44:19.117Z,8.67
2023-04-19T10:46:53.205Z,8.71
2023-04-19T10:49:51.121Z,8.73
2023-04-19T10:52:45.182Z,8.86
2023-04-19T10:55:39.104Z,8.93
2023-04-19T10:58:26.102Z,9.07
2023-04-19T11:01:52.300Z,9.20
2023-04-19T11:04:46.181Z,9.17
2023-04-19T11:07:33.140Z,9.25
2023-04-19T11:10:06.724Z,9.33
2023-04-19T11:12:53.125Z,9.31
2023-04-19T11:15:29.230Z,9.35
2023-04-19T11:18:26.279Z,9.32
2023-04-19T11:21:08.124Z,9.23
2023-04-19T11:23:57.125Z,9.25
2023-04-19T11:26:31.485Z,9.34
2023-04-19T11:29:19.117Z,9.45
2023-04-19T11:31:53.273Z,9.57
2023-04-19T11:34:44.150Z,9.72
2023-04-19T11:37:17.320Z,9.88
2023-04-19T11:40:04.897Z,10.03
2023-04-19T11:42:46.132Z,9.99
2023-04-19T11:45:48.157Z,10.18
2023-04-19T11:48:35.138Z,10.69
2023-04-19T11:51:12.309Z,10.76
2023-04-19T11:53:59.185Z,10.61
2023-04-19T11:56:39.195Z,10.64
2023-04-19T11:59:33.200Z,10.68
2023-04-19T12:02:27.286Z,10.80
2023-04-19T12:05:19.527Z,10.80
2023-04-19T12:08:13.286Z,10.72
2023-04-19T12:11:04.455Z,10.62
2023-04-19T12:13:47.144Z,10.45
2023-04-19T12:16:41.207Z,10.29
2023-04-19T12:19:28.151Z,10.31
2023-04-19T12:22:20.412Z,10.40
2023-04-19T12:25:07.186Z,10.55
2023-04-19T12:27:47.155Z,10.62
2023-04-19T12:30:42.158Z,10.50
2023-04-19T12:33:29.224Z,10.58
2023-04-19T12:36:02.262Z,10.56
2023-04-19T12:38:49.201Z,10.53
2023-04-19T12:41:29.241Z,10.53
2023-04-19T12:44:23.185Z,10.47
2023-04-19T12:47:10.147Z,10.36
2023-04-19T12:49:43.322Z,10.32
2023-04-19T12:52:30.220Z,10.27
2023-04-19T12:55:10.210Z,10.38
2023-04-19T12:58:04.241Z,10.28
2023-04-19T13:00:58.192Z,10.24
2023-04-19T13:03:45.251Z,10.28
2023-04-19T13:06:25.192Z,10.45
2023-04-19T13:09:14.918Z,10.60
2023-04-19T13:11:55.194Z,10.68
2023-04-19T13:14:42.225Z,10.70
2023-04-19T13:17:22.257Z,10.71
2023-04-19T13:20:16.214Z,10.69
2023-04-19T13:23:10.216Z,10.52
2023-04-19T13:25:57.195Z,10.36
2023-04-19T13:28:31.093Z,10.17
2023-04-19T13:31:18.280Z,10.11
2023-04-19T13:33:58.211Z,10.19
2023-04-19T13:36:52.232Z,10.27
2023-04-19T13:39:46.227Z,10.30
2023-04-19T13:42:33.207Z,10.29
2023-04-19T13:45:06.321Z,10.21
2023-04-19T13:47:53.431Z,10.10
2023-04-19T13:50:26.319Z,10.10
2023-04-19T13:53:13.236Z,10.07
2023-04-19T13:55:46.538Z,9.96
2023-04-19T13:58:33.205Z,9.90
2023-04-19T14:01:06.412Z,9.87
2023-04-19T14:03:53.366Z,9.86
2023-04-19T14:06:33.211Z,9.86
2023-04-19T14:09:20.218Z,9.89
2023-04-19T14:11:53.327Z,9.88
2023-04-19T14:14:40.304Z,9.89
2023-04-19T14:17:20.271Z,9.89
2023-04-19T14:20:14.225Z,9.89
2023-04-19T14:23:05.240Z,9.92
2023-04-19T14:25:38.576Z,9.99
2023-04-19T14:28:28.957Z,10.07
2023-04-19T14:31:09.223Z,10.07
2023-04-19T14:34:04.217Z,10.07
2023-04-19T14:36:51.650Z,9.97
2023-04-19T14:39:25.391Z,9.93
2023-04-19T14:42:12.262Z,9.93
2023-04-19T14:44:54.249Z,9.92
2023-04-19T14:47:48.323Z,9.94
2023-04-19T14:50:35.225Z,9.96
2023-04-19T14:53:08.384Z,9.95
2023-04-19T14:55:55.235Z,9.94
2023-04-19T14:58:35.231Z,9.91
2023-04-19T15:01:30.341Z,9.85
2023-04-19T15:04:17.387Z,9.73
2023-04-19T15:06:51.600Z,9.61
2023-04-19T15:09:38.320Z,9.59
2023-04-19T15:12:22.412Z,9.59
2023-04-19T15:15:16.342Z,9.55
2023-04-19T15:18:03.350Z,9.50
2023-04-19T15:20:39.762Z,9.46
2023-04-19T15:23:30.265Z,9.42
2023-04-19T15:26:10.246Z,9.37
2023-04-19T15:29:04.232Z,9.30
2023-04-19T15:31:51.280Z,9.24
2023-04-19T15:34:25.437Z,9.23
2023-04-19T15:37:13.243Z,9.20
2023-04-19T15:39:49.514Z,9.15
2023-04-19T15:42:36.249Z,9.11
2023-04-19T15:45:09.843Z,9.07
2023-04-19T15:47:56.305Z,9.08
2023-04-19T15:50:29.383Z,9.09
2023-04-19T15:53:16.287Z,9.08
2023-04-19T15:55:49.442Z,9.09
2023-04-19T15:58:36.260Z,9.09
2023-04-19T16:01:09.390Z,9.10
2023-04-19T16:03:56.678Z,9.11
2023-04-19T16:06:30.452Z,9.15
2023-04-19T16:09:17.415Z,9.15
2023-04-19T16:11:50.568Z,9.14
2023-04-19T16:14:37.297Z,9.13
2023-04-19T16:17:10.493Z,9.09
2023-04-19T16:19:57.350Z,9.07
2023-04-19T16:22:39.298Z,9.03
2023-04-19T16:25:33.288Z,8.95
2023-04-19T16:28:20.280Z,8.87
2023-04-19T16:30:53.637Z,8.81
2023-04-19T16:33:40.344Z,8.76
2023-04-19T16:36:13.391Z,8.77
2023-04-19T16:39:00.316Z,8.72
2023-04-19T16:41:33.384Z,8.67
2023-04-19T16:44:13.305Z,8.65
2023-04-19T16:46:53.393Z,8.62
2023-04-19T16:49:33.308Z,8.59
2023-04-19T16:52:14.331Z,8.57
2023-04-19T16:54:54.327Z,8.54
2023-04-19T16:57:43.305Z,8.49
2023-04-19T17:00:17.624Z,8.42
2023-04-19T17:03:04.485Z,8.38
2023-04-19T17:05:37.397Z,8.37
2023-04-19T17:08:24.276Z,8.33
2023-04-19T17:10:57.398Z,8.31
2023-04-19T17:13:45.296Z,8.29
2023-04-19T17:16:19.516Z,8.26
2023-04-19T17:19:07.302Z,8.19
2023-04-19T17:21:40.490Z,8.18
2023-04-19T17:24:27.339Z,8.10
2023-04-19T17:27:01.425Z,8.09
2023-04-19T17:29:48.310Z,8.05
2023-04-19T17:32:21.385Z,7.97
2023-04-19T17:35:08.295Z,7.90
2023-04-19T17:37:41.435Z,7.86
2023-04-19T17:40:29.696Z,7.81
2023-04-19T17:43:10.352Z,7.78
2023-04-19T17:46:04.345Z,7.76
2023-04-19T17:48:53.340Z,7.71
2023-04-19T17:51:35.339Z,7.66
2023-04-19T17:54:30.328Z,7.63
2023-04-19T17:57:18.334Z,7.58
2023-04-19T17:59:51.576Z,7.51
2023-04-19T18:02:38.492Z,7.45
2023-04-19T18:05:13.586Z,7.41
2023-04-19T18:08:00.344Z,7.41
2023-04-19T18:10:40.360Z,7.41
2023-04-19T18:13:27.345Z,7.38
2023-04-19T18:16:07.358Z,7.37
2023-04-19T18:19:01.357Z,7.35
2023-04-19T18:21:55.342Z,7.28
2023-04-19T18:24:50.348Z,7.27
2023-04-19T18:27:38.361Z,7.24
2023-04-19T18:30:19.349Z,7.25
2023-04-19T18:33:07.387Z,7.24
2023-04-19T18:35:47.348Z,7.20
2023-04-19T18:38:34.395Z,7.19
2023-04-19T18:41:07.483Z,7.18
2023-04-19T18:46:33.395Z,7.07
2023-04-19T18:49:20.389Z,7.04
2023-04-19T18:51:53.521Z,7.00
2023-04-19T18:54:40.323Z,6.99
2023-04-19T18:57:23.240Z,6.94
2023-04-19T19:00:17.394Z,6.88
2023-04-19T19:02:57.442Z,6.87
2023-04-19T19:05:51.471Z,6.85
2023-04-19T19:08:38.392Z,6.85
2023-04-19T19:11:37.389Z,6.81
2023-04-19T19:14:21.485Z,6.76
2023-04-19T19:17:01.419Z,6.76
2023-04-19T19:19:57.409Z,6.75
2023-04-19T19:22:52.344Z,6.74
2023-04-19T19:25:39.345Z,6.77
2023-04-19T19:28:12.566Z,6.79
2023-04-19T19:30:59.441Z,6.83
2023-04-19T19:33:32.987Z,6.85
2023-04-19T19:36:20.368Z,6.90
2023-04-19T19:38:53.443Z,6.93
2023-04-19T19:42:04.661Z,6.97
2023-04-19T19:44:40.347Z,7.01
2023-04-19T19:47:34.531Z,7.04
2023-04-19T19:52:57.488Z,7.10
2023-04-19T19:55:44.350Z,7.17
2023-04-19T19:58:42.576Z,7.21
2023-04-19T20:01:24.388Z,7.26
2023-04-19T20:04:04.544Z,7.32
2023-04-19T20:07:28.891Z,7.34
2023-04-19T20:10:05.411Z,7.39
2023-04-19T20:12:38.563Z,7.42
2023-04-19T20:15:25.389Z,7.46
2023-04-19T20:17:58.564Z,7.50
2023-04-19T20:20:45.385Z,7.54
2023-04-19T20:23:39.395Z,7.55
2023-04-19T20:26:33.418Z,7.58
2023-04-19T20:29:21.422Z,7.61
2023-04-19T20:31:54.564Z,7.63
2023-04-19T20:34:41.403Z,7.62
2023-04-19T20:37:14.450Z,7.65
2023-04-19T20:40:04.377Z,7.65
2023-04-19T20:42:44.382Z,7.66
2023-04-19T20:45:32.420Z,7.65
2023-04-19T20:48:06.132Z,7.66
2023-04-19T20:50:53.395Z,7.67
2023-04-19T20:53:33.400Z,7.69
2023-04-19T20:56:20.387Z,7.66
2023-04-19T20:59:00.385Z,7.67
2023-04-19T21:01:48.410Z,7.67
2023-04-19T21:04:21.662Z,7.68
2023-04-19T21:07:08.384Z,7.66
2023-04-19T21:09:41.497Z,7.67
2023-04-19T21:12:28.388Z,7.65
2023-04-19T21:15:01.559Z,7.64
2023-04-19T21:17:48.406Z,7.59
2023-04-19T21:20:21.515Z,7.60
2023-04-19T21:23:15.435Z,7.58
2023-04-19T21:26:11.403Z,7.57
2023-04-19T21:29:05.403Z,7.58
2023-04-19T21:31:52.482Z,7.56
2023-04-19T21:34:25.495Z,7.58
2023-04-19T21:37:12.418Z,7.58
2023-04-19T21:39:45.636Z,7.58
2023-04-19T21:42:32.412Z,7.59
2023-04-19T21:45:05.853Z,7.63
2023-04-19T21:47:52.434Z,7.64
2023-04-19T21:50:32.433Z,7.66
2023-04-19T21:53:26.429Z,7.66
2023-04-19T21:56:20.436Z,7.65
2023-04-19T21:59:07.429Z,7.66
2023-04-19T22:01:47.448Z,7.66
2023-04-19T22:04:37.433Z,7.66
2023-04-19T22:07:18.417Z,7.67
2023-04-19T22:10:07.459Z,7.69
2023-04-19T22:12:48.292Z,7.70
2023-04-19T22:15:32.387Z,7.69
2023-04-19T22:18:12.487Z,7.69
2023-04-19T22:20:45.538Z,7.69
2023-04-19T22:23:32.431Z,7.69
2023-04-19T22:26:05.610Z,7.68
2023-04-19T22:28:52.462Z,7.67
2023-04-19T22:31:26.170Z,7.65
2023-04-19T22:34:12.423Z,7.65
2023-04-19T22:36:45.560Z,7.66
2023-04-19T22:39:33.425Z,7.65
2023-04-19T22:42:06.551Z,7.66
2023-04-19T22:44:53.432Z,7.65
2023-04-19T22:47:33.463Z,7.65
2023-04-19T22:50:20.444Z,7.66
2023-04-19T22:53:00.415Z,7.67
2023-04-19T22:55:54.427Z,7.66
2023-04-19T22:58:41.422Z,7.68
2023-04-19T23:01:14.620Z,7.70
2023-04-19T23:04:01.429Z,7.69
2023-04-19T23:06:34.575Z,7.71
2023-04-19T23:09:21.438Z,7.70
2023-04-19T23:11:54.941Z,7.73
2023-04-19T23:14:41.448Z,7.73
2023-04-19T23:17:15.950Z,7.74
2023-04-19T23:20:02.474Z,7.74
2023-04-19T23:22:42.456Z,7.74
2023-04-19T23:25:36.440Z,7.76
2023-04-19T23:28:23.452Z,7.76
2023-04-19T23:30:56.570Z,7.74
2023-04-19T23:33:36.445Z,7.72
2023-04-19T23:36:16.478Z,7.72
2023-04-19T23:38:49.560Z,7.73
2023-04-19T23:41:36.467Z,7.74
2023-04-19T23:44:09.557Z,7.71
2023-04-19T23:46:56.592Z,7.71
2023-04-19T23:49:29.566Z,7.71
2023-04-19T23:52:16.484Z,7.72
2023-04-19T23:54:49.622Z,7.72
2023-04-19T23:57:36.479Z,7.70
